createdAt,value
2023-02-21T00:02:06.267Z,93088.19
2023-02-21T00:05:07.980Z,93080.28
2023-02-21T00:08:08.636Z,93082.97
2023-02-21T00:11:09.150Z,93079.94
2023-02-21T00:14:09.394Z,93076.13
2023-02-21T00:17:09.910Z,93072.78
2023-02-21T00:20:11.445Z,93072.66
2023-02-21T00:23:11.767Z,93075.31
2023-02-21T00:26:12.217Z,93078.09
2023-02-21T00:29:12.554Z,93068.94
2023-02-21T00:32:13.374Z,93070.22
2023-02-21T00:35:15.166Z,93068.94
2023-02-21T00:38:15.469Z,93059.88
2023-02-21T00:41:16.262Z,93060.81
2023-02-21T00:44:16.638Z,93065.22
2023-02-21T00:47:16.852Z,93071.81
2023-02-21T00:50:18.492Z,93070.19
2023-02-21T00:53:18.633Z,93072.72
2023-02-21T00:56:19.150Z,93071.22
2023-02-21T00:59:19.355Z,93074.00
2023-02-21T01:02:19.689Z,93069.94
2023-02-21T01:05:22.018Z,93068.75
2023-02-21T01:08:22.752Z,93068.88
2023-02-21T01:11:23.130Z,93060.66
2023-02-21T01:14:24.734Z,93059.13
2023-02-21T01:17:26.189Z,93055.19
2023-02-21T01:20:28.749Z,93059.69
2023-02-21T01:23:29.406Z,93059.09
2023-02-21T01:26:29.487Z,93049.25
2023-02-21T01:29:31.695Z,93049.59
2023-02-21T01:32:33.901Z,93048.19
2023-02-21T01:35:35.564Z,93042.59
2023-02-21T01:38:35.719Z,93042.13
2023-02-21T01:41:36.146Z,93037.94
2023-02-21T01:44:54.470Z,93034.13
2023-02-21T01:47:54.805Z,93035.94
2023-02-21T01:50:56.417Z,93033.66
2023-02-21T01:53:56.691Z,93033.16
2023-02-21T01:56:58.335Z,93025.25
2023-02-21T01:59:59.621Z,93024.44
2023-02-21T02:03:08.842Z,93022.13
2023-02-21T02:06:14.404Z,93021.31
2023-02-21T02:09:14.482Z,93019.47
2023-02-21T02:12:25.402Z,93017.94
2023-02-21T02:15:33.841Z,93010.31
2023-02-21T02:18:30.578Z,93018.06
2023-02-21T02:22:02.217Z,93020.22
2023-02-21T02:25:01.506Z,93007.59
2023-02-21T02:28:18.762Z,93012.81
2023-02-21T02:31:25.400Z,93002.72
2023-02-21T02:34:42.347Z,92996.03
2023-02-21T02:37:32.858Z,92997.06
2023-02-21T02:40:23.798Z,93000.63
2023-02-21T02:43:17.041Z,93002.59
2023-02-21T02:46:06.429Z,93004.72
2023-02-21T02:48:55.106Z,93007.94
2023-02-21T02:51:39.575Z,93004.88
2023-02-21T02:54:25.032Z,93012.13
2023-02-21T02:57:13.019Z,93019.75
2023-02-21T02:59:56.466Z,93015.00
2023-02-21T03:02:51.533Z,93009.13
2023-02-21T03:05:42.660Z,93004.63
2023-02-21T03:08:37.849Z,93000.13
2023-02-21T03:11:24.925Z,93002.66
2023-02-21T03:14:14.471Z,92999.81
2023-02-21T03:17:02.775Z,93004.69
2023-02-21T03:19:48.970Z,93013.72
2023-02-21T03:22:33.258Z,93018.69
2023-02-21T03:25:18.437Z,93012.09
2023-02-21T03:28:03.071Z,93016.47
2023-02-21T03:30:56.411Z,93022.47
2023-02-21T03:33:41.338Z,93010.69
2023-02-21T03:36:25.225Z,93011.59
2023-02-21T03:39:09.018Z,93026.97
2023-02-21T03:41:53.543Z,93022.81
2023-02-21T03:44:36.469Z,93024.53
2023-02-21T03:47:19.463Z,93021.19
2023-02-21T03:50:02.424Z,93028.00
2023-02-21T03:52:45.405Z,93018.63
2023-02-21T03:55:28.877Z,93022.47
2023-02-21T03:58:14.746Z,93022.38
2023-02-21T04:00:59.034Z,93019.72
2023-02-21T04:03:41.855Z,93024.69
2023-02-21T04:06:24.738Z,93026.22
2023-02-21T04:09:07.575Z,93020.00
2023-02-21T04:11:52.431Z,93021.19
2023-02-21T04:14:36.697Z,93015.69
2023-02-21T04:17:19.877Z,93016.28
2023-02-21T04:20:03.787Z,93015.03
2023-02-21T04:23:02.701Z,93016.66
2023-02-21T04:25:46.461Z,93023.16
2023-02-21T04:28:34.177Z,93017.94
2023-02-21T04:31:19.776Z,93012.75
2023-02-21T04:34:11.813Z,93024.44
2023-02-21T04:36:58.140Z,93015.06
2023-02-21T04:39:42.038Z,93014.97
2023-02-21T04:42:24.916Z,93013.00
2023-02-21T04:45:09.220Z,93015.22
2023-02-21T04:47:54.079Z,93020.94
2023-02-21T04:50:36.895Z,93025.69
2023-02-21T04:53:19.867Z,93016.28
2023-02-21T04:56:02.625Z,93016.06
2023-02-21T04:58:46.150Z,93020.81
2023-02-21T05:01:31.295Z,93012.97
2023-02-21T05:04:15.696Z,93018.66
2023-02-21T05:06:59.857Z,93015.09
2023-02-21T05:09:42.644Z,93003.28
2023-02-21T05:12:25.469Z,93000.50
2023-02-21T05:15:09.467Z,93007.09
2023-02-21T05:17:52.296Z,93006.06
2023-02-21T05:20:36.380Z,93001.56
2023-02-21T05:23:34.019Z,92998.09
2023-02-21T05:26:16.996Z,92994.59
2023-02-21T05:29:00.031Z,92993.59
2023-02-21T05:31:42.796Z,92988.50
2023-02-21T05:34:25.654Z,92999.47
2023-02-21T05:37:09.768Z,92998.69
2023-02-21T05:39:52.901Z,92999.47
2023-02-21T05:42:35.698Z,92999.47
2023-02-21T05:45:19.697Z,92998.69
2023-02-21T05:48:02.596Z,92994.38
2023-02-21T05:50:45.832Z,92999.47
2023-02-21T05:53:29.984Z,93008.88
2023-02-21T05:56:13.732Z,92994.38
2023-02-21T05:58:56.529Z,93002.84
2023-02-21T06:01:39.889Z,92999.47
2023-02-21T06:04:22.685Z,93003.66
2023-02-21T06:07:05.455Z,93007.81
2023-02-21T06:09:49.691Z,93007.03
2023-02-21T06:12:32.720Z,93009.44
2023-02-21T06:15:15.522Z,93017.78
2023-02-21T06:17:58.297Z,93014.09
2023-02-21T06:20:41.159Z,93012.13
2023-02-21T06:23:23.928Z,93013.53
2023-02-21T06:26:08.139Z,93017.59
2023-02-21T06:28:51.350Z,93016.53
2023-02-21T06:31:36.345Z,93026.63
2023-02-21T06:34:19.207Z,93016.22
2023-02-21T06:37:02.120Z,93010.19
2023-02-21T06:39:44.956Z,93010.06
2023-02-21T06:42:30.036Z,93013.19
2023-02-21T06:45:12.953Z,93010.53
2023-02-21T06:47:55.703Z,93013.66
2023-02-21T06:50:38.477Z,93012.63
2023-02-21T06:53:21.255Z,93012.16
2023-02-21T06:56:05.644Z,93017.84
2023-02-21T06:58:49.768Z,93019.25
2023-02-21T07:01:32.765Z,93023.06
2023-02-21T07:04:15.607Z,93019.34
2023-02-21T07:06:58.409Z,93017.50
2023-02-21T07:09:41.236Z,93013.81
2023-02-21T07:12:23.989Z,93021.09
2023-02-21T07:15:09.077Z,93018.97
2023-02-21T07:17:51.896Z,93023.06
2023-02-21T07:20:35.375Z,93032.19
2023-02-21T07:23:18.360Z,93029.44
2023-02-21T07:26:01.174Z,93037.22
2023-02-21T07:28:44.169Z,93032.19
2023-02-21T07:31:28.397Z,93042.41
2023-02-21T07:34:12.221Z,93040.56
2023-02-21T07:36:55.068Z,93036.25
2023-02-21T07:39:38.192Z,93037.06
2023-02-21T07:42:21.069Z,93035.81
2023-02-21T07:45:04.123Z,93042.88
2023-02-21T07:47:50.959Z,93039.41
2023-02-21T07:50:33.790Z,93048.69
2023-02-21T07:53:17.810Z,93051.78
2023-02-21T07:56:00.781Z,93050.97
2023-02-21T07:58:43.588Z,93053.28
2023-02-21T08:01:27.801Z,93051.44
2023-02-21T08:04:13.243Z,93054.81
2023-02-21T08:07:00.642Z,93063.16
2023-02-21T08:09:43.435Z,93052.00
2023-02-21T08:12:26.247Z,93055.38
2023-02-21T08:15:09.875Z,93055.25
2023-02-21T08:17:53.032Z,93055.25
2023-02-21T08:20:37.175Z,93061.19
2023-02-21T08:23:20.161Z,93055.25
2023-02-21T08:26:04.530Z,93064.44
2023-02-21T08:28:47.334Z,93065.22
2023-02-21T08:31:30.244Z,93070.81
2023-02-21T08:34:13.795Z,93075.53
2023-02-21T08:36:58.235Z,93069.28
2023-02-21T08:39:41.084Z,93073.09
2023-02-21T08:42:23.910Z,93073.44
2023-02-21T08:45:07.458Z,93084.53
2023-02-21T08:47:51.447Z,93083.31
2023-02-21T08:50:34.554Z,93082.81
2023-02-21T08:53:18.919Z,93086.03
2023-02-21T08:56:01.751Z,93091.78
2023-02-21T08:58:44.547Z,93089.88
2023-02-21T09:01:33.289Z,93096.81
2023-02-21T09:04:16.105Z,93090.28
2023-02-21T09:06:58.911Z,93084.28
2023-02-21T09:09:43.119Z,93093.63
2023-02-21T09:12:25.929Z,93096.59
2023-02-21T09:15:09.506Z,93093.81
2023-02-21T09:17:54.551Z,93098.44
2023-02-21T09:20:41.609Z,93098.22
2023-02-21T09:23:25.386Z,93090.56
2023-02-21T09:26:09.564Z,93098.03
2023-02-21T09:28:53.470Z,93106.06
2023-02-21T09:31:36.343Z,93103.16
2023-02-21T09:34:19.306Z,93111.97
2023-02-21T09:37:05.911Z,93109.41
2023-02-21T09:39:48.734Z,93101.06
2023-02-21T09:42:33.555Z,93106.59
2023-02-21T09:45:17.285Z,93104.19
2023-02-21T09:48:03.946Z,93099.16
2023-02-21T09:50:50.043Z,93100.53
2023-02-21T09:53:35.922Z,93097.69
2023-02-21T09:56:27.914Z,93099.44
2023-02-21T09:59:14.085Z,93101.19
2023-02-21T10:02:18.781Z,93099.00
2023-02-21T10:05:11.150Z,93104.56
2023-02-21T10:08:02.463Z,93096.97
2023-02-21T10:10:47.938Z,93094.69
2023-02-21T10:13:40.568Z,93085.38
2023-02-21T10:16:29.860Z,93090.16
2023-02-21T10:19:19.698Z,93087.72
2023-02-21T10:22:12.052Z,93099.47
2023-02-21T10:24:55.294Z,93096.94
2023-02-21T10:27:38.125Z,93099.94
2023-02-21T10:30:29.207Z,93097.66
2023-02-21T10:33:13.816Z,93102.09
2023-02-21T10:35:56.755Z,93102.41
2023-02-21T10:38:42.103Z,93091.84
2023-02-21T10:41:31.135Z,93105.09
2023-02-21T10:44:18.940Z,93100.22
2023-02-21T10:47:05.517Z,93102.13
2023-02-21T10:49:55.194Z,93090.38
2023-02-21T10:52:39.485Z,93091.59
2023-02-21T10:55:32.644Z,93084.31
2023-02-21T10:58:28.677Z,93088.75
2023-02-21T11:01:15.963Z,93088.13
2023-02-21T11:04:02.102Z,93087.56
2023-02-21T11:06:48.674Z,93095.13
2023-02-21T11:09:36.645Z,93089.69
2023-02-21T11:12:24.332Z,93086.34
2023-02-21T11:15:18.486Z,93082.16
2023-02-21T11:18:07.714Z,93079.44
2023-02-21T11:20:50.508Z,93081.75
2023-02-21T11:23:34.698Z,93073.63
2023-02-21T11:26:17.645Z,93063.66
2023-02-21T11:29:11.552Z,93072.44
2023-02-21T11:31:55.121Z,93071.22
2023-02-21T11:34:38.008Z,93065.81
2023-02-21T11:37:20.841Z,93051.06
2023-02-21T11:40:08.680Z,93051.72
2023-02-21T11:42:51.830Z,93060.66
2023-02-21T11:45:37.901Z,93057.13
2023-02-21T11:48:31.318Z,93054.69
2023-02-21T11:51:23.806Z,93059.16
2023-02-21T11:54:07.707Z,93053.66
2023-02-21T11:56:56.260Z,93047.00
2023-02-21T11:59:47.566Z,93043.50
2023-02-21T12:03:08.725Z,93032.28
2023-02-21T12:05:58.830Z,93029.03
2023-02-21T12:08:48.787Z,93026.94
2023-02-21T12:12:02.249Z,93024.72
2023-02-21T12:14:57.551Z,93021.84
2023-02-21T12:17:53.163Z,93029.50
2023-02-21T12:21:02.147Z,93018.41
2023-02-21T12:23:55.641Z,93016.09
2023-02-21T12:26:52.645Z,93016.53
2023-02-21T12:29:53.741Z,93009.13
2023-02-21T12:32:50.077Z,93008.59
2023-02-21T12:36:02.633Z,93004.56
2023-02-21T12:38:57.121Z,93003.09
2023-02-21T12:41:50.905Z,93001.34
2023-02-21T12:44:43.251Z,92992.03
2023-02-21T12:47:33.580Z,92984.31
2023-02-21T12:50:22.567Z,92976.63
2023-02-21T12:53:17.146Z,92969.81
2023-02-21T12:56:06.923Z,92976.34
2023-02-21T12:58:53.931Z,92974.16
2023-02-21T13:01:42.554Z,92973.72
2023-02-21T13:04:37.257Z,92965.44
2023-02-21T13:07:26.414Z,92965.66
2023-02-21T13:10:18.013Z,92959.41
2023-02-21T13:13:05.554Z,92963.59
2023-02-21T13:15:50.267Z,92966.97
2023-02-21T13:18:34.344Z,92960.19
2023-02-21T13:21:31.251Z,92966.97
2023-02-21T13:24:42.223Z,92957.63
2023-02-21T13:27:57.470Z,92958.63
2023-02-21T13:30:46.568Z,92958.44
2023-02-21T13:33:38.458Z,92967.63
2023-02-21T13:36:27.141Z,92952.88
2023-02-21T13:39:14.828Z,92950.00
2023-02-21T13:42:05.538Z,92948.22
2023-02-21T13:44:54.203Z,92953.16
2023-02-21T13:48:18.687Z,92948.22
2023-02-21T13:51:02.005Z,92944.56
2023-02-21T13:54:10.178Z,92946.84
2023-02-21T13:56:53.265Z,92941.19
2023-02-21T13:59:37.562Z,92946.13
2023-02-21T14:02:31.150Z,92933.91
2023-02-21T14:05:14.120Z,92941.84
2023-02-21T14:08:03.291Z,92926.31
2023-02-21T14:10:50.610Z,92932.31
2023-02-21T14:13:54.405Z,92933.50
2023-02-21T14:17:06.056Z,92931.41
2023-02-21T14:19:54.758Z,92927.44
2023-02-21T14:22:39.787Z,92927.50
2023-02-21T14:25:25.579Z,92925.78
2023-02-21T14:28:41.470Z,92911.00
2023-02-21T14:31:58.966Z,92911.25
2023-02-21T14:34:54.203Z,92904.88
2023-02-21T14:37:40.026Z,92905.88
2023-02-21T14:40:32.789Z,92909.28
2023-02-21T14:43:43.851Z,92911.53
2023-02-21T14:46:54.913Z,92911.06
2023-02-21T14:50:06.216Z,92901.88
2023-02-21T14:53:19.475Z,92901.59
2023-02-21T14:56:22.197Z,92905.31
2023-02-21T14:59:52.719Z,92906.59
2023-02-21T15:02:43.556Z,92903.19
2023-02-21T15:05:31.488Z,92898.34
2023-02-21T15:08:18.296Z,92902.25
2023-02-21T15:11:05.615Z,92903.84
2023-02-21T15:13:48.513Z,92898.84
2023-02-21T15:16:33.087Z,92885.00
2023-02-21T15:19:31.845Z,92890.44
2023-02-21T15:22:25.049Z,92890.59
2023-02-21T15:25:25.145Z,92891.84
2023-02-21T15:28:21.970Z,92895.50
2023-02-21T15:31:07.994Z,92897.13
2023-02-21T15:33:53.493Z,92900.97
2023-02-21T15:36:36.401Z,92900.16
2023-02-21T15:39:25.417Z,92900.06
2023-02-21T15:42:11.683Z,92901.19
2023-02-21T15:45:00.621Z,92904.38
2023-02-21T15:47:44.495Z,92901.44
2023-02-21T15:50:34.135Z,92910.56
2023-02-21T15:53:19.673Z,92902.19
2023-02-21T15:56:24.553Z,92896.84
2023-02-21T15:59:13.530Z,92896.38
2023-02-21T16:02:15.113Z,92892.94
2023-02-21T16:04:57.957Z,92893.41
2023-02-21T16:07:41.174Z,92883.56
2023-02-21T16:10:26.043Z,92887.09
2023-02-21T16:13:11.027Z,92888.19
2023-02-21T16:15:53.985Z,92874.69
2023-02-21T16:18:36.932Z,92875.00
2023-02-21T16:21:24.155Z,92868.38
2023-02-21T16:24:30.183Z,92869.63
2023-02-21T16:27:16.182Z,92870.63
2023-02-21T16:30:01.426Z,92872.66
2023-02-21T16:32:47.499Z,92871.22
2023-02-21T16:35:30.960Z,92875.31
2023-02-21T16:38:16.580Z,92873.66
2023-02-21T16:40:59.356Z,92871.66
2023-02-21T16:43:42.253Z,92873.25
2023-02-21T16:46:30.095Z,92873.69
2023-02-21T16:49:13.591Z,92868.19
2023-02-21T16:51:56.410Z,92877.94
2023-02-21T16:54:39.204Z,92874.91
2023-02-21T16:57:22.108Z,92874.63
2023-02-21T17:00:05.836Z,92880.50
2023-02-21T17:02:50.939Z,92878.94
2023-02-21T17:05:35.990Z,92879.50
2023-02-21T17:08:18.920Z,92878.47
2023-02-21T17:11:01.787Z,92881.44
2023-02-21T17:13:44.618Z,92881.75
2023-02-21T17:16:27.496Z,92879.72
2023-02-21T17:19:12.891Z,92881.66
2023-02-21T17:21:58.127Z,92885.88
2023-02-21T17:24:41.027Z,92873.66
2023-02-21T17:27:23.861Z,92881.09
2023-02-21T17:30:07.854Z,92883.28
2023-02-21T17:32:51.173Z,92882.09
2023-02-21T17:35:35.331Z,92884.09
2023-02-21T17:38:18.165Z,92880.22
2023-02-21T17:41:00.938Z,92888.59
2023-02-21T17:43:43.896Z,92887.13
2023-02-21T17:46:26.899Z,92885.94
2023-02-21T17:49:09.836Z,92887.69
2023-02-21T17:51:54.898Z,92886.75
2023-02-21T17:54:37.842Z,92886.88
2023-02-21T17:57:20.783Z,92894.72
2023-02-21T18:00:04.321Z,92881.06
2023-02-21T18:02:47.760Z,92883.63
2023-02-21T18:05:31.531Z,92883.78
2023-02-21T18:08:16.729Z,92892.41
2023-02-21T18:10:59.514Z,92889.19
2023-02-21T18:13:42.573Z,92895.00
2023-02-21T18:16:25.659Z,92903.09
2023-02-21T18:19:08.537Z,92893.69
2023-02-21T18:21:51.329Z,92904.59
2023-02-21T18:24:35.459Z,92891.81
2023-02-21T18:27:18.255Z,92894.34
2023-02-21T18:30:01.144Z,92891.81
2023-02-21T18:32:44.029Z,92899.34
2023-02-21T18:35:26.858Z,92893.94
2023-02-21T18:38:09.704Z,92897.44
2023-02-21T18:40:54.644Z,92897.31
2023-02-21T18:43:37.579Z,92892.59
2023-02-21T18:46:23.826Z,92887.63
2023-02-21T18:49:06.838Z,92886.94
2023-02-21T18:51:49.771Z,92883.28
2023-02-21T18:54:32.779Z,92885.44
2023-02-21T18:57:17.643Z,92884.38
2023-02-21T19:00:00.583Z,92879.78
2023-02-21T19:02:43.380Z,92876.03
2023-02-21T19:05:27.148Z,92879.25
2023-02-21T19:08:10.019Z,92879.00
2023-02-21T19:10:53.945Z,92875.47
2023-02-21T19:13:38.197Z,92878.69
2023-02-21T19:16:21.121Z,92881.81
2023-02-21T19:19:04.187Z,92880.88
2023-02-21T19:21:47.211Z,92879.25
2023-02-21T19:24:30.206Z,92866.56
2023-02-21T19:27:13.070Z,92876.03
2023-02-21T19:29:57.801Z,92876.03
2023-02-21T19:32:40.742Z,92884.66
2023-02-21T19:35:23.589Z,92880.59
2023-02-21T19:38:08.190Z,92890.03
2023-02-21T19:40:51.037Z,92883.16
2023-02-21T19:43:33.927Z,92888.94
2023-02-21T19:46:23.232Z,92885.44
2023-02-21T19:49:07.028Z,92883.69
2023-02-21T19:51:51.868Z,92886.00
2023-02-21T19:54:34.683Z,92886.78
2023-02-21T19:57:17.596Z,92891.75
2023-02-21T20:00:00.431Z,92884.06
2023-02-21T20:02:46.313Z,92890.03
2023-02-21T20:05:29.384Z,92888.56
2023-02-21T20:08:12.332Z,92885.31
2023-02-21T20:10:55.118Z,92879.53
2023-02-21T20:13:38.956Z,92885.44
2023-02-21T20:16:22.385Z,92880.88
2023-02-21T20:19:08.353Z,92883.19
2023-02-21T20:21:53.366Z,92887.06
2023-02-21T20:24:36.179Z,92890.97
2023-02-21T20:27:19.211Z,92894.09
2023-02-21T20:30:02.239Z,92892.72
2023-02-21T20:32:45.776Z,92889.50
2023-02-21T20:35:30.588Z,92889.63
2023-02-21T20:38:13.654Z,92889.75
2023-02-21T20:40:56.443Z,92896.75
2023-02-21T20:43:39.214Z,92889.47
2023-02-21T20:46:23.055Z,92890.00
2023-02-21T20:49:06.966Z,92886.78
2023-02-21T20:51:51.159Z,92893.84
2023-02-21T20:54:34.130Z,92894.38
2023-02-21T20:57:17.056Z,92898.00
2023-02-21T20:59:59.877Z,92898.56
2023-02-21T21:02:43.212Z,92901.25
2023-02-21T21:05:26.364Z,92894.94
2023-02-21T21:08:10.815Z,92889.31
2023-02-21T21:10:53.678Z,92890.66
2023-02-21T21:13:37.091Z,92895.38
2023-02-21T21:16:20.262Z,92882.59
2023-02-21T21:19:03.561Z,92888.41
2023-02-21T21:21:46.451Z,92890.16
2023-02-21T21:24:31.995Z,92887.44
2023-02-21T21:27:15.458Z,92883.69
2023-02-21T21:29:58.405Z,92888.97
2023-02-21T21:32:41.810Z,92890.16
2023-02-21T21:35:29.870Z,92889.09
2023-02-21T21:38:14.528Z,92886.94
2023-02-21T21:41:00.094Z,92890.44
2023-02-21T21:43:43.860Z,92890.44
2023-02-21T21:46:26.666Z,92888.41
2023-02-21T21:49:10.605Z,92883.19
2023-02-21T21:51:55.574Z,92885.59
2023-02-21T21:54:40.460Z,92886.38
2023-02-21T21:57:27.115Z,92880.03
2023-02-21T22:00:21.465Z,92883.81
2023-02-21T22:03:04.678Z,92879.09
2023-02-21T22:05:50.414Z,92884.06
2023-02-21T22:08:33.536Z,92878.94
2023-02-21T22:11:16.588Z,92878.41
2023-02-21T22:14:01.181Z,92883.13
2023-02-21T22:16:45.477Z,92875.31
2023-02-21T22:19:29.356Z,92873.13
2023-02-21T22:22:13.701Z,92872.34
2023-02-21T22:24:56.463Z,92870.88
2023-02-21T22:27:39.241Z,92876.78
2023-02-21T22:30:23.957Z,92875.59
2023-02-21T22:33:07.192Z,92868.56
2023-02-21T22:35:50.397Z,92864.25
2023-02-21T22:38:33.179Z,92863.44
2023-02-21T22:41:17.826Z,92862.78
2023-02-21T22:44:01.439Z,92864.66
2023-02-21T22:46:47.258Z,92857.25
2023-02-21T22:49:31.129Z,92854.94
2023-02-21T22:52:14.048Z,92859.28
2023-02-21T22:54:57.686Z,92855.91
2023-02-21T22:57:40.544Z,92854.94
2023-02-21T23:00:26.487Z,92853.34
2023-02-21T23:03:13.760Z,92852.81
2023-02-21T23:06:00.039Z,92859.56
2023-02-21T23:08:48.680Z,92853.63
2023-02-21T23:11:31.482Z,92851.88
2023-02-21T23:14:15.195Z,92858.47
2023-02-21T23:16:59.817Z,92847.16
2023-02-21T23:19:44.036Z,92856.31
2023-02-21T23:22:27.380Z,92858.06
2023-02-21T23:25:19.996Z,92860.63
2023-02-21T23:28:05.829Z,92850.50
2023-02-21T23:30:49.680Z,92851.59
2023-02-21T23:33:33.974Z,92846.59
2023-02-21T23:36:22.503Z,92847.84
2023-02-21T23:39:09.001Z,92851.63
2023-02-21T23:41:53.581Z,92844.47
2023-02-21T23:44:36.410Z,92847.44
2023-02-21T23:47:19.656Z,92840.97
2023-02-21T23:50:02.464Z,92843.78
2023-02-21T23:52:48.381Z,92843.00
2023-02-21T23:55:35.579Z,92845.72
2023-02-21T23:58:20.396Z,92848.28
